createdAt,value
2018-01-07T00:00:05.129Z,0.00
2018-01-07T00:01:05.120Z,0.00
2018-01-07T00:02:05.118Z,0.00
2018-01-07T00:03:05.115Z,0.00
2018-01-07T00:04:05.105Z,0.00
2018-01-07T00:05:05.106Z,0.00
2018-01-07T00:06:05.095Z,0.00
2018-01-07T00:07:05.099Z,0.00
2018-01-07T00:08:05.088Z,0.00
2018-01-07T00:09:05.085Z,0.00
2018-01-07T00:10:05.076Z,0.00
2018-01-07T00:11:05.072Z,0.00
2018-01-07T00:12:05.064Z,0.00
2018-01-07T00:13:05.062Z,0.00
2018-01-07T00:14:05.053Z,0.00
2018-01-07T00:15:05.057Z,0.00
2018-01-07T00:16:05.046Z,0.00
2018-01-07T00:17:05.043Z,0.00
2018-01-07T00:18:05.039Z,0.00
2018-01-07T00:19:05.029Z,0.00
2018-01-07T00:20:05.023Z,0.00
2018-01-07T00:21:05.017Z,0.00
2018-01-07T00:22:05.012Z,0.00
2018-01-07T00:23:05.007Z,0.00
2018-01-07T00:24:04.993Z,0.00
2018-01-07T00:25:05.000Z,0.00
2018-01-07T00:26:04.992Z,0.00
2018-01-07T00:27:04.985Z,0.00
2018-01-07T00:28:04.983Z,0.00
2018-01-07T00:29:04.979Z,0.00
2018-01-07T00:30:04.965Z,0.00
2018-01-07T00:31:04.967Z,0.00
2018-01-07T00:32:04.965Z,0.00
2018-01-07T00:33:04.955Z,0.00
2018-01-07T00:34:04.953Z,0.00
2018-01-07T00:35:04.948Z,0.00
2018-01-07T00:36:04.929Z,0.00
2018-01-07T00:37:04.935Z,0.00
2018-01-07T00:38:04.928Z,0.00
2018-01-07T00:39:04.916Z,0.00
2018-01-07T00:40:04.909Z,0.00
2018-01-07T00:41:04.916Z,0.00
2018-01-07T00:42:04.908Z,0.00
2018-01-07T00:43:04.903Z,0.00
2018-01-07T00:44:04.898Z,0.00
2018-01-07T00:45:04.880Z,0.00
2018-01-07T00:46:04.878Z,0.00
2018-01-07T00:47:04.884Z,0.00
2018-01-07T00:48:04.879Z,0.00
2018-01-07T00:49:04.873Z,0.00
2018-01-07T00:50:04.873Z,0.00
2018-01-07T00:51:04.863Z,0.00
2018-01-07T00:52:04.849Z,0.00
2018-01-07T00:53:04.844Z,0.00
2018-01-07T00:54:04.849Z,0.00
2018-01-07T00:55:04.848Z,0.00
2018-01-07T00:56:04.833Z,0.00
2018-01-07T00:57:04.836Z,0.00
2018-01-07T00:58:04.821Z,0.00
2018-01-07T00:59:04.826Z,0.00
2018-01-07T01:00:04.822Z,0.00
2018-01-07T01:01:04.806Z,0.00
2018-01-07T01:02:04.802Z,0.00
2018-01-07T01:03:04.806Z,0.00
2018-01-07T01:04:04.805Z,0.00
2018-01-07T01:05:04.802Z,0.00
2018-01-07T01:06:04.782Z,0.00
2018-01-07T01:07:04.786Z,0.00
2018-01-07T01:08:04.781Z,0.00
2018-01-07T01:09:04.782Z,0.00
2018-01-07T01:10:04.770Z,0.00
2018-01-07T01:11:04.760Z,0.00
2018-01-07T01:12:04.761Z,0.00
2018-01-07T01:13:04.761Z,0.00
2018-01-07T01:14:04.746Z,0.00
2018-01-07T01:15:04.744Z,0.00
2018-01-07T01:16:04.736Z,0.00
2018-01-07T01:17:04.734Z,0.00
2018-01-07T01:18:04.728Z,0.00
2018-01-07T01:19:04.722Z,0.00
2018-01-07T01:20:04.717Z,0.00
2018-01-07T01:21:04.713Z,0.00
2018-01-07T01:22:04.709Z,0.00
2018-01-07T01:23:04.704Z,0.00
2018-01-07T01:24:04.703Z,0.00
2018-01-07T01:25:04.697Z,0.00
2018-01-07T01:26:04.694Z,0.00
2018-01-07T01:27:04.688Z,0.00
2018-01-07T01:28:04.678Z,0.00
2018-01-07T01:29:04.672Z,0.00
2018-01-07T01:30:04.666Z,0.00
2018-01-07T01:31:04.663Z,0.00
2018-01-07T01:32:04.670Z,0.00
2018-01-07T01:33:04.661Z,0.00
2018-01-07T01:34:04.648Z,0.00
2018-01-07T01:35:04.642Z,0.00
2018-01-07T01:36:04.639Z,0.00
2018-01-07T01:37:04.635Z,0.00
2018-01-07T01:38:04.636Z,0.00
2018-01-07T01:39:04.623Z,0.00
2018-01-07T01:40:04.619Z,0.00
2018-01-07T01:41:04.613Z,0.00
2018-01-07T01:42:04.608Z,0.00
2018-01-07T01:43:04.606Z,0.00
2018-01-07T01:44:04.605Z,0.00
2018-01-07T01:45:04.600Z,0.00
2018-01-07T01:46:04.590Z,0.00
2018-01-07T01:47:04.585Z,0.00
2018-01-07T01:48:04.583Z,0.00
2018-01-07T01:49:04.574Z,0.00
2018-01-07T01:50:04.588Z,0.00
2018-01-07T01:51:04.564Z,0.00
2018-01-07T01:52:04.561Z,0.00
2018-01-07T01:53:04.554Z,0.00
2018-01-07T01:54:04.550Z,0.00
2018-01-07T01:55:04.545Z,0.00
2018-01-07T01:56:04.540Z,0.00
2018-01-07T01:57:04.536Z,0.00
2018-01-07T01:58:04.534Z,0.00
2018-01-07T01:59:04.525Z,0.00
2018-01-07T02:00:04.519Z,0.00
2018-01-07T02:01:04.518Z,0.00
2018-01-07T02:02:04.516Z,0.00
2018-01-07T02:03:04.506Z,0.00
2018-01-07T02:04:04.500Z,0.00
2018-01-07T02:05:04.497Z,0.00
2018-01-07T02:06:04.490Z,0.00
2018-01-07T02:07:04.486Z,0.00
2018-01-07T02:08:04.480Z,0.00
2018-01-07T02:09:04.476Z,0.00
2018-01-07T02:10:04.471Z,0.00
2018-01-07T02:11:04.465Z,0.00
2018-01-07T02:12:04.474Z,0.00
2018-01-07T02:13:04.464Z,0.00
2018-01-07T02:14:04.453Z,0.00
2018-01-07T02:15:04.449Z,0.00
2018-01-07T02:16:04.443Z,0.00
2018-01-07T02:17:04.437Z,0.00
2018-01-07T02:18:04.430Z,0.00
2018-01-07T02:19:04.426Z,0.00
2018-01-07T02:20:04.422Z,0.00
2018-01-07T02:21:04.418Z,0.00
2018-01-07T02:22:04.415Z,0.00
2018-01-07T02:23:04.407Z,0.00
2018-01-07T02:24:04.409Z,0.00
2018-01-07T02:25:04.395Z,0.00
2018-01-07T02:26:04.397Z,0.00
2018-01-07T02:27:04.392Z,0.00
2018-01-07T02:28:04.381Z,0.00
2018-01-07T02:29:04.374Z,0.00
2018-01-07T02:30:04.373Z,0.00
2018-01-07T02:31:04.370Z,0.00
2018-01-07T02:32:04.373Z,0.00
2018-01-07T02:33:04.358Z,0.00
2018-01-07T02:34:04.352Z,0.00
2018-01-07T02:35:04.347Z,0.00
2018-01-07T02:36:04.342Z,0.00
2018-01-07T02:37:04.338Z,0.00
2018-01-07T02:38:04.335Z,0.00
2018-01-07T02:39:04.327Z,0.00
2018-01-07T02:40:04.322Z,0.00
2018-01-07T02:41:04.317Z,0.00
2018-01-07T02:42:04.312Z,0.00
2018-01-07T02:43:04.308Z,0.00
2018-01-07T02:44:04.305Z,0.00
2018-01-07T02:45:04.301Z,0.00
2018-01-07T02:46:04.293Z,0.00
2018-01-07T02:47:04.290Z,0.00
2018-01-07T02:48:04.282Z,0.00
2018-01-07T02:49:04.279Z,0.00
2018-01-07T02:50:04.273Z,0.00
2018-01-07T02:51:04.266Z,0.00
2018-01-07T02:52:04.269Z,0.00
2018-01-07T02:53:04.285Z,0.00
2018-01-07T02:54:04.252Z,0.00
2018-01-07T02:55:04.259Z,0.00
2018-01-07T02:56:04.248Z,0.00
2018-01-07T02:57:04.246Z,0.00
2018-01-07T02:58:04.233Z,0.00
2018-01-07T02:59:04.229Z,0.00
2018-01-07T03:00:04.233Z,0.00
2018-01-07T03:01:04.225Z,0.00
2018-01-07T03:02:04.214Z,0.00
2018-01-07T03:03:04.214Z,0.00
2018-01-07T03:04:04.206Z,0.00
2018-01-07T03:05:04.215Z,0.00
2018-01-07T03:06:04.204Z,0.00
2018-01-07T03:07:04.191Z,0.00
2018-01-07T03:08:04.186Z,0.00
2018-01-07T03:09:04.181Z,0.00
2018-01-07T03:10:04.179Z,0.00
2018-01-07T03:11:04.172Z,0.00
2018-01-07T03:12:04.177Z,0.00
2018-01-07T03:13:04.164Z,0.00
2018-01-07T03:14:04.153Z,0.00
2018-01-07T03:15:04.153Z,0.00
2018-01-07T03:16:04.150Z,0.00
2018-01-07T03:17:04.139Z,0.00
2018-01-07T03:18:04.135Z,0.00
2018-01-07T03:19:04.128Z,0.00
2018-01-07T03:20:04.134Z,0.00
2018-01-07T03:21:04.119Z,0.00
2018-01-07T03:22:04.115Z,0.00
2018-01-07T03:23:04.111Z,0.00
2018-01-07T03:24:04.105Z,0.00
2018-01-07T03:25:04.098Z,0.00
2018-01-07T03:26:04.096Z,0.00
2018-01-07T03:27:04.104Z,0.00
2018-01-07T03:28:04.087Z,0.00
2018-01-07T03:29:04.079Z,0.00
2018-01-07T03:30:04.091Z,0.00
2018-01-07T03:31:04.072Z,0.00
2018-01-07T03:32:04.066Z,0.00
2018-01-07T03:33:04.060Z,0.00
2018-01-07T03:34:04.055Z,0.00
2018-01-07T03:35:04.058Z,0.00
2018-01-07T03:36:04.046Z,0.00
2018-01-07T03:37:04.040Z,0.00
2018-01-07T03:38:04.037Z,0.00
2018-01-07T03:39:04.033Z,0.00
2018-01-07T03:40:04.037Z,0.00
2018-01-07T03:41:04.021Z,0.00
2018-01-07T03:42:04.016Z,0.00
2018-01-07T03:43:04.011Z,0.00
2018-01-07T03:44:04.005Z,0.00
2018-01-07T03:45:04.003Z,0.00
2018-01-07T03:46:04.006Z,0.00
2018-01-07T03:47:03.997Z,0.00
2018-01-07T03:48:03.986Z,0.00
2018-01-07T03:49:03.986Z,0.00
2018-01-07T03:50:03.981Z,0.00
2018-01-07T03:51:03.969Z,0.00
2018-01-07T03:52:03.979Z,0.00
2018-01-07T03:53:03.970Z,0.00
2018-01-07T03:54:03.955Z,0.00
2018-01-07T03:55:03.953Z,0.00
2018-01-07T03:56:03.948Z,0.00
2018-01-07T03:57:03.944Z,0.00
2018-01-07T03:58:03.941Z,0.00
2018-01-07T03:59:03.930Z,0.00
2018-01-07T04:00:03.923Z,0.00
2018-01-07T04:01:03.931Z,0.00
2018-01-07T04:02:03.914Z,0.00
2018-01-07T04:03:03.907Z,0.00
2018-01-07T04:04:03.903Z,0.00
2018-01-07T04:05:03.897Z,0.00
2018-01-07T04:06:03.896Z,0.00
2018-01-07T04:07:03.889Z,0.00
2018-01-07T04:08:03.881Z,0.00
2018-01-07T04:09:03.884Z,0.00
2018-01-07T04:10:03.873Z,0.00
2018-01-07T04:11:03.866Z,0.00
2018-01-07T04:12:03.869Z,0.00
2018-01-07T04:13:03.864Z,0.00
2018-01-07T04:14:03.852Z,0.00
2018-01-07T04:15:03.846Z,0.00
2018-01-07T04:16:03.844Z,0.00
2018-01-07T04:17:03.841Z,0.00
2018-01-07T04:18:03.832Z,0.00
2018-01-07T04:19:03.826Z,0.00
2018-01-07T04:20:03.824Z,0.00
2018-01-07T04:21:03.816Z,0.00
2018-01-07T04:22:03.811Z,0.00
2018-01-07T04:23:03.805Z,0.00
2018-01-07T04:24:03.801Z,0.00
2018-01-07T04:25:03.794Z,0.00
2018-01-07T04:26:03.795Z,0.00
2018-01-07T04:27:03.787Z,0.00
2018-01-07T04:28:03.780Z,0.00
2018-01-07T04:29:03.773Z,0.00
2018-01-07T04:30:03.768Z,0.00
2018-01-07T04:31:03.762Z,0.00
2018-01-07T04:32:03.759Z,0.00
2018-01-07T04:33:03.762Z,0.00
2018-01-07T04:34:03.751Z,0.00
2018-01-07T04:35:03.745Z,0.00
2018-01-07T04:36:03.743Z,0.00
2018-01-07T04:37:03.731Z,0.00
2018-01-07T04:38:03.725Z,0.00
2018-01-07T04:39:03.724Z,0.00
2018-01-07T04:40:03.716Z,0.00
2018-01-07T04:41:03.719Z,0.00
2018-01-07T04:42:03.706Z,0.00
2018-01-07T04:43:03.705Z,0.00
2018-01-07T04:44:03.702Z,0.00
2018-01-07T04:45:03.691Z,0.00
2018-01-07T04:46:03.688Z,0.00
2018-01-07T04:47:03.679Z,0.00
2018-01-07T04:48:03.676Z,0.00
2018-01-07T04:49:03.672Z,0.00
2018-01-07T04:50:03.675Z,0.00
2018-01-07T04:51:03.664Z,0.00
2018-01-07T04:52:03.661Z,0.00
2018-01-07T04:53:03.647Z,0.00
2018-01-07T04:54:03.653Z,0.00
2018-01-07T04:55:03.638Z,0.00
2018-01-07T04:56:03.635Z,0.00
2018-01-07T04:57:03.630Z,0.00
2018-01-07T04:58:03.627Z,0.00
2018-01-07T04:59:03.616Z,0.00
2018-01-07T05:00:03.619Z,0.00
2018-01-07T05:01:03.611Z,0.00
2018-01-07T05:02:03.606Z,0.00
2018-01-07T05:03:03.601Z,0.00
2018-01-07T05:04:03.595Z,0.00
2018-01-07T05:05:03.589Z,0.00
2018-01-07T05:06:03.584Z,0.00
2018-01-07T05:07:03.581Z,0.00
2018-01-07T05:08:03.588Z,0.00
2018-01-07T05:09:03.577Z,0.00
2018-01-07T05:10:03.564Z,0.00
2018-01-07T05:11:03.568Z,0.00
2018-01-07T05:12:03.556Z,0.00
2018-01-07T05:13:03.548Z,0.00
2018-01-07T05:14:03.561Z,0.00
2018-01-07T05:15:03.540Z,0.00
2018-01-07T05:16:03.534Z,0.00
2018-01-07T05:17:03.526Z,0.00
2018-01-07T05:18:03.535Z,0.00
2018-01-07T05:19:03.521Z,0.00
2018-01-07T05:20:03.513Z,0.00
2018-01-07T05:21:03.506Z,0.00
2018-01-07T05:22:03.505Z,0.00
2018-01-07T05:23:03.497Z,0.00
2018-01-07T05:24:03.492Z,0.00
2018-01-07T05:25:03.485Z,0.00
2018-01-07T05:26:03.483Z,0.00
2018-01-07T05:27:03.478Z,0.00
2018-01-07T05:28:03.473Z,0.00
2018-01-07T05:29:03.469Z,0.00
2018-01-07T05:30:03.462Z,0.00
2018-01-07T05:31:03.457Z,0.00
2018-01-07T05:32:03.464Z,0.00
2018-01-07T05:33:03.446Z,0.00
2018-01-07T05:34:03.441Z,0.00
2018-01-07T05:35:03.437Z,0.00
2018-01-07T05:36:03.433Z,0.00
2018-01-07T05:37:03.425Z,0.00
2018-01-07T05:38:03.428Z,0.00
2018-01-07T05:39:03.483Z,0.00
2018-01-07T05:40:03.490Z,0.00
2018-01-07T05:41:03.421Z,0.00
2018-01-07T05:42:03.505Z,0.00
2018-01-07T05:43:03.513Z,0.00
2018-01-07T05:44:03.389Z,0.00
2018-01-07T05:45:03.516Z,0.00
2018-01-07T05:46:03.436Z,0.00
2018-01-07T05:47:03.537Z,0.00
2018-01-07T05:48:03.534Z,0.00
2018-01-07T05:49:03.447Z,0.00
2018-01-07T05:50:03.384Z,0.00
2018-01-07T05:51:03.464Z,0.00
2018-01-07T05:52:03.448Z,0.00
2018-01-07T05:53:03.414Z,0.00
2018-01-07T05:54:03.488Z,0.00
2018-01-07T05:55:03.338Z,0.00
2018-01-07T05:56:03.486Z,0.00
2018-01-07T05:57:03.482Z,0.00
2018-01-07T05:58:03.341Z,0.00
2018-01-07T05:59:03.495Z,0.00
2018-01-07T06:00:03.346Z,0.00
2018-01-07T06:01:03.304Z,0.00
2018-01-07T06:02:03.297Z,0.00
2018-01-07T06:03:03.291Z,0.00
2018-01-07T06:04:03.283Z,0.00
2018-01-07T06:05:03.281Z,0.00
2018-01-07T06:06:03.275Z,0.00
2018-01-07T06:07:03.269Z,0.00
2018-01-07T06:08:03.265Z,0.00
2018-01-07T06:09:03.269Z,0.00
2018-01-07T06:10:03.255Z,0.00
2018-01-07T06:11:03.250Z,0.00
2018-01-07T06:12:03.242Z,0.00
2018-01-07T06:13:03.235Z,0.00
2018-01-07T06:14:03.239Z,0.00
2018-01-07T06:15:03.225Z,0.00
2018-01-07T06:16:03.219Z,0.00
2018-01-07T06:17:03.219Z,0.00
2018-01-07T06:18:03.211Z,0.00
2018-01-07T06:19:03.217Z,0.00
2018-01-07T06:20:03.208Z,0.00
2018-01-07T06:21:03.216Z,0.00
2018-01-07T06:22:03.189Z,0.00
2018-01-07T06:23:03.186Z,0.00
2018-01-07T06:24:03.179Z,0.00
2018-01-07T06:25:03.178Z,0.00
2018-01-07T06:26:03.171Z,0.00
2018-01-07T06:27:03.162Z,0.00
2018-01-07T06:28:03.159Z,0.00
2018-01-07T06:29:03.152Z,0.00
2018-01-07T06:30:03.150Z,0.00
2018-01-07T06:31:03.143Z,0.00
2018-01-07T06:32:03.146Z,0.00
2018-01-07T06:33:03.158Z,0.00
2018-01-07T06:34:03.128Z,0.00
2018-01-07T06:35:03.120Z,0.00
2018-01-07T06:36:03.118Z,0.00
2018-01-07T06:37:03.111Z,0.00
2018-01-07T06:38:03.106Z,0.00
2018-01-07T06:39:03.109Z,0.00
2018-01-07T06:40:03.090Z,0.00
2018-01-07T06:41:03.099Z,0.00
2018-01-07T06:42:03.112Z,0.00
2018-01-07T06:43:03.076Z,0.00
2018-01-07T06:44:03.073Z,0.00
2018-01-07T06:45:03.068Z,0.00
2018-01-07T06:46:03.063Z,0.00
2018-01-07T06:47:03.051Z,0.00
2018-01-07T06:48:03.049Z,0.00
2018-01-07T06:49:03.043Z,0.00
2018-01-07T06:50:03.041Z,0.00
2018-01-07T06:51:03.041Z,0.00
2018-01-07T06:52:03.026Z,0.00
2018-01-07T06:53:03.019Z,0.00
2018-01-07T06:54:03.069Z,0.00
2018-01-07T06:55:03.011Z,0.00
2018-01-07T06:56:03.026Z,0.00
2018-01-07T06:57:02.998Z,0.00
2018-01-07T06:58:02.997Z,0.00
2018-01-07T06:59:02.983Z,0.00
2018-01-07T07:00:02.980Z,4.00
2018-01-07T07:01:02.987Z,4.00
2018-01-07T07:02:02.972Z,0.00
2018-01-07T07:03:02.967Z,0.00
2018-01-07T07:04:02.960Z,0.00
2018-01-07T07:05:02.953Z,0.00
2018-01-07T07:06:02.950Z,4.00
2018-01-07T07:07:02.941Z,4.00
2018-01-07T07:08:02.938Z,4.00
2018-01-07T07:09:02.935Z,4.00
2018-01-07T07:10:02.925Z,4.00
2018-01-07T07:11:02.919Z,8.00
2018-01-07T07:12:02.919Z,4.00
2018-01-07T07:13:02.913Z,4.00
2018-01-07T07:14:02.911Z,8.00
2018-01-07T07:15:02.900Z,8.00
2018-01-07T07:16:02.905Z,4.00
2018-01-07T07:17:02.893Z,8.00
2018-01-07T07:18:02.881Z,8.00
2018-01-07T07:19:02.876Z,8.00
2018-01-07T07:20:02.895Z,12.00
2018-01-07T07:21:02.865Z,12.00
2018-01-07T07:22:02.864Z,16.00
2018-01-07T07:23:02.861Z,12.00
2018-01-07T07:24:02.861Z,16.00
2018-01-07T07:25:02.847Z,16.00
2018-01-07T07:26:02.855Z,16.00
2018-01-07T07:27:02.834Z,20.00
2018-01-07T07:28:02.851Z,20.00
2018-01-07T07:29:02.821Z,20.00
2018-01-07T07:30:02.815Z,20.00
2018-01-07T07:31:02.824Z,20.00
2018-01-07T07:32:02.806Z,24.00
2018-01-07T07:33:02.797Z,24.00
2018-01-07T07:34:02.793Z,24.00
2018-01-07T07:35:02.787Z,28.00
2018-01-07T07:36:02.783Z,32.00
2018-01-07T07:37:02.777Z,36.00
2018-01-07T07:38:02.773Z,32.00
2018-01-07T07:39:02.768Z,36.00
2018-01-07T07:40:02.770Z,36.00
2018-01-07T07:41:02.754Z,40.00
2018-01-07T07:42:02.752Z,44.00
2018-01-07T07:43:02.743Z,48.00
2018-01-07T07:44:02.741Z,48.00
2018-01-07T07:45:02.732Z,52.00
2018-01-07T07:46:02.724Z,56.00
2018-01-07T07:47:02.722Z,60.00
2018-01-07T07:48:02.732Z,60.00
2018-01-07T07:49:02.710Z,64.00
2018-01-07T07:50:02.711Z,64.00
2018-01-07T07:51:02.705Z,72.00
2018-01-07T07:52:02.757Z,76.00
2018-01-07T07:53:02.685Z,84.00
2018-01-07T07:54:02.681Z,80.00
2018-01-07T07:55:02.675Z,92.00
2018-01-07T07:56:02.668Z,112.00
2018-01-07T07:57:02.662Z,128.00
2018-01-07T07:58:02.659Z,140.00
2018-01-07T07:59:02.653Z,128.00
2018-01-07T08:00:02.668Z,136.00
2018-01-07T08:01:02.645Z,148.00
2018-01-07T08:02:02.633Z,140.00
2018-01-07T08:03:02.630Z,136.00
2018-01-07T08:04:02.627Z,136.00
2018-01-07T08:05:02.654Z,128.00
2018-01-07T08:06:02.610Z,124.00
2018-01-07T08:07:02.605Z,120.00
2018-01-07T08:08:02.608Z,116.00
2018-01-07T08:09:02.608Z,124.00
2018-01-07T08:10:02.590Z,112.00
2018-01-07T08:11:02.586Z,116.00
2018-01-07T08:12:02.578Z,124.00
2018-01-07T08:13:02.616Z,120.00
2018-01-07T08:14:02.585Z,124.00
2018-01-07T08:15:02.566Z,124.00
2018-01-07T08:16:02.557Z,132.00
2018-01-07T08:17:02.548Z,132.00
2018-01-07T08:18:02.542Z,128.00
2018-01-07T08:19:02.536Z,124.00
2018-01-07T08:20:02.535Z,124.00
2018-01-07T08:21:02.525Z,120.00
2018-01-07T08:22:02.517Z,132.00
2018-01-07T08:23:02.515Z,136.00
2018-01-07T08:24:02.508Z,140.00
2018-01-07T08:25:02.527Z,148.00
2018-01-07T08:26:02.496Z,148.00
2018-01-07T08:27:02.513Z,148.00
2018-01-07T08:28:02.519Z,156.00
2018-01-07T08:29:02.499Z,148.00
2018-01-07T08:30:02.472Z,148.00
2018-01-07T08:31:02.468Z,136.00
2018-01-07T08:32:02.464Z,136.00
2018-01-07T08:33:02.453Z,140.00
2018-01-07T08:34:02.466Z,128.00
2018-01-07T08:35:02.445Z,128.00
2018-01-07T08:36:02.436Z,124.00
2018-01-07T08:37:02.430Z,132.00
2018-01-07T08:38:02.427Z,148.00
2018-01-07T08:39:02.422Z,148.00
2018-01-07T08:40:02.414Z,140.00
2018-01-07T08:41:02.410Z,140.00
2018-01-07T08:42:02.420Z,144.00
2018-01-07T08:43:02.403Z,148.00
2018-01-07T08:44:02.414Z,148.00
2018-01-07T08:45:02.413Z,172.00
2018-01-07T08:46:02.378Z,152.00
2018-01-07T08:47:02.373Z,164.00
2018-01-07T08:48:02.370Z,156.00
2018-01-07T08:49:02.361Z,160.00
2018-01-07T08:50:02.358Z,160.00
2018-01-07T08:51:02.359Z,136.00
2018-01-07T08:52:02.346Z,132.00
2018-01-07T08:53:02.340Z,128.00
2018-01-07T08:54:02.332Z,124.00
2018-01-07T08:55:02.334Z,136.00
2018-01-07T08:56:02.346Z,124.00
2018-01-07T08:57:02.315Z,128.00
2018-01-07T08:58:02.313Z,148.00
2018-01-07T08:59:02.321Z,148.00
2018-01-07T09:00:02.359Z,136.00
2018-01-07T09:01:02.330Z,144.00
2018-01-07T09:02:02.289Z,132.00
2018-01-07T09:03:02.281Z,124.00
2018-01-07T09:04:02.277Z,128.00
2018-01-07T09:05:02.270Z,116.00
2018-01-07T09:06:02.262Z,132.00
2018-01-07T09:07:02.254Z,124.00
2018-01-07T09:08:02.257Z,112.00
2018-01-07T09:09:02.243Z,120.00
2018-01-07T09:10:02.245Z,116.00
2018-01-07T09:11:02.236Z,112.00
2018-01-07T09:12:02.225Z,112.00
2018-01-07T09:13:02.229Z,120.00
2018-01-07T09:14:02.211Z,112.00
2018-01-07T09:15:02.229Z,104.00
2018-01-07T09:16:02.224Z,112.00
2018-01-07T09:17:02.196Z,108.00
2018-01-07T09:18:02.184Z,108.00
2018-01-07T09:19:02.178Z,120.00
2018-01-07T09:20:02.173Z,132.00
2018-01-07T09:21:02.166Z,124.00
2018-01-07T09:22:02.160Z,120.00
2018-01-07T09:23:02.158Z,108.00
2018-01-07T09:24:02.147Z,104.00
2018-01-07T09:25:02.142Z,100.00
2018-01-07T09:26:02.138Z,108.00
2018-01-07T09:27:02.133Z,108.00
2018-01-07T09:28:02.127Z,108.00
2018-01-07T09:29:02.118Z,120.00
2018-01-07T09:30:02.113Z,124.00
2018-01-07T09:31:02.108Z,124.00
2018-01-07T09:32:02.100Z,120.00
2018-01-07T09:33:02.092Z,120.00
2018-01-07T09:34:02.098Z,112.00
2018-01-07T09:35:02.082Z,108.00
2018-01-07T09:36:02.076Z,100.00
2018-01-07T09:37:02.068Z,100.00
2018-01-07T09:38:02.061Z,100.00
2018-01-07T09:39:02.059Z,96.00
2018-01-07T09:40:02.048Z,96.00
2018-01-07T09:41:02.042Z,100.00
2018-01-07T09:42:02.037Z,120.00
2018-01-07T09:43:02.032Z,112.00
2018-01-07T09:44:02.027Z,116.00
2018-01-07T09:45:02.017Z,112.00
2018-01-07T09:46:02.020Z,104.00
2018-01-07T09:47:02.038Z,104.00
2018-01-07T09:48:02.000Z,128.00
2018-01-07T09:49:01.998Z,136.00
2018-01-07T09:50:01.987Z,132.00
2018-01-07T09:51:01.979Z,120.00
2018-01-07T09:52:01.995Z,128.00
2018-01-07T09:53:01.991Z,128.00
2018-01-07T09:54:01.962Z,128.00
2018-01-07T09:55:01.954Z,136.00
2018-01-07T09:56:01.948Z,128.00
2018-01-07T09:57:01.954Z,128.00
2018-01-07T09:58:01.939Z,128.00
2018-01-07T09:59:01.934Z,132.00
2018-01-07T10:00:01.930Z,128.00
2018-01-07T10:01:01.917Z,132.00
2018-01-07T10:02:01.913Z,132.00
2018-01-07T10:03:01.904Z,128.00
2018-01-07T10:04:01.899Z,136.00
2018-01-07T10:05:01.893Z,136.00
2018-01-07T10:06:01.896Z,132.00
2018-01-07T10:07:01.878Z,128.00
2018-01-07T10:08:01.872Z,136.00
2018-01-07T10:09:01.866Z,152.00
2018-01-07T10:10:01.863Z,144.00
2018-01-07T10:11:01.859Z,144.00
2018-01-07T10:12:01.852Z,152.00
2018-01-07T10:13:01.842Z,160.00
2018-01-07T10:14:01.835Z,160.00
2018-01-07T10:15:01.831Z,168.00
2018-01-07T10:16:01.824Z,168.00
2018-01-07T10:17:01.818Z,164.00
2018-01-07T10:18:01.812Z,172.00
2018-01-07T10:19:01.806Z,184.00
2018-01-07T10:20:01.800Z,196.00
2018-01-07T10:21:01.792Z,188.00
2018-01-07T10:22:01.785Z,196.00
2018-01-07T10:23:01.779Z,204.00
2018-01-07T10:24:01.773Z,196.00
2018-01-07T10:25:01.779Z,204.00
2018-01-07T10:26:01.761Z,228.00
2018-01-07T10:27:01.761Z,212.00
2018-01-07T10:28:01.751Z,244.00
2018-01-07T10:29:01.790Z,236.00
2018-01-07T10:30:01.738Z,252.00
2018-01-07T10:31:01.730Z,264.00
2018-01-07T10:32:01.725Z,240.00
2018-01-07T10:33:01.740Z,244.00
2018-01-07T10:34:01.711Z,272.00
2018-01-07T10:35:01.705Z,280.00
2018-01-07T10:36:01.701Z,276.00
2018-01-07T10:37:01.702Z,256.00
2018-01-07T10:38:01.685Z,268.00
2018-01-07T10:39:01.682Z,256.00
2018-01-07T10:40:01.672Z,296.00
2018-01-07T10:41:01.668Z,316.00
2018-01-07T10:42:01.662Z,268.00
2018-01-07T10:43:01.657Z,300.00
2018-01-07T10:44:01.648Z,340.00
2018-01-07T10:45:01.641Z,336.00
2018-01-07T10:46:01.643Z,356.00
2018-01-07T10:47:01.627Z,324.00
2018-01-07T10:48:01.628Z,368.00
2018-01-07T10:49:01.616Z,376.00
2018-01-07T10:50:01.615Z,364.00
2018-01-07T10:51:01.608Z,384.00
2018-01-07T10:52:01.600Z,404.00
2018-01-07T10:53:01.592Z,456.00
2018-01-07T10:54:01.586Z,420.00
2018-01-07T10:55:01.578Z,396.00
2018-01-07T10:56:01.597Z,412.00
2018-01-07T10:57:01.580Z,416.00
2018-01-07T10:58:01.562Z,432.00
2018-01-07T10:59:01.555Z,416.00
2018-01-07T11:00:01.548Z,452.00
2018-01-07T11:01:01.559Z,492.00
2018-01-07T11:02:01.535Z,464.00
2018-01-07T11:03:01.529Z,452.00
2018-01-07T11:04:01.522Z,444.00
2018-01-07T11:05:01.520Z,404.00
2018-01-07T11:06:01.550Z,436.00
2018-01-07T11:07:01.508Z,460.00
2018-01-07T11:08:01.515Z,464.00
2018-01-07T11:09:01.502Z,448.00
2018-01-07T11:10:01.494Z,428.00
2018-01-07T11:11:01.480Z,428.00
2018-01-07T11:12:01.474Z,420.00
2018-01-07T11:13:01.466Z,392.00
2018-01-07T11:14:01.459Z,396.00
2018-01-07T11:15:01.453Z,416.00
2018-01-07T11:16:01.447Z,412.00
2018-01-07T11:17:01.440Z,376.00
2018-01-07T11:18:01.435Z,352.00
2018-01-07T11:19:01.482Z,336.00
2018-01-07T11:20:01.432Z,328.00
2018-01-07T11:21:01.419Z,352.00
2018-01-07T11:22:01.407Z,376.00
2018-01-07T11:23:01.411Z,368.00
2018-01-07T11:24:01.396Z,348.00
2018-01-07T11:25:01.391Z,344.00
2018-01-07T11:26:01.384Z,336.00
2018-01-07T11:27:01.390Z,340.00
2018-01-07T11:28:01.374Z,344.00
2018-01-07T11:29:01.366Z,348.00
2018-01-07T11:30:01.362Z,316.00
2018-01-07T11:31:01.355Z,332.00
2018-01-07T11:32:01.348Z,336.00
2018-01-07T11:33:01.342Z,340.00
2018-01-07T11:34:01.335Z,360.00
2018-01-07T11:35:01.328Z,380.00
2018-01-07T11:36:01.324Z,392.00
2018-01-07T11:37:01.316Z,416.00
2018-01-07T11:38:01.311Z,424.00
2018-01-07T11:39:01.307Z,412.00
2018-01-07T11:40:01.298Z,396.00
2018-01-07T11:41:01.292Z,364.00
2018-01-07T11:42:01.289Z,324.00
2018-01-07T11:43:01.278Z,336.00
2018-01-07T11:44:01.276Z,332.00
2018-01-07T11:45:01.269Z,328.00
2018-01-07T11:46:01.257Z,372.00
2018-01-07T11:47:01.254Z,376.00
2018-01-07T11:48:01.251Z,348.00
2018-01-07T11:49:01.241Z,360.00
2018-01-07T11:50:01.236Z,408.00
2018-01-07T11:51:01.234Z,400.00
2018-01-07T11:52:01.223Z,380.00
2018-01-07T11:53:01.218Z,364.00
2018-01-07T11:54:01.215Z,364.00
2018-01-07T11:55:01.205Z,356.00
2018-01-07T11:56:01.199Z,344.00
2018-01-07T11:57:01.240Z,332.00
2018-01-07T11:58:01.196Z,308.00
2018-01-07T11:59:01.180Z,272.00
2018-01-07T12:00:01.284Z,276.00
2018-01-07T12:01:01.166Z,296.00
2018-01-07T12:02:01.184Z,304.00
2018-01-07T12:03:01.165Z,320.00
2018-01-07T12:04:01.155Z,316.00
2018-01-07T12:05:01.143Z,320.00
2018-01-07T12:06:01.135Z,296.00
2018-01-07T12:07:01.132Z,312.00
2018-01-07T12:08:01.122Z,308.00
2018-01-07T12:09:01.118Z,276.00
2018-01-07T12:10:01.119Z,284.00
2018-01-07T12:11:01.104Z,284.00
2018-01-07T12:12:01.096Z,268.00
2018-01-07T12:13:01.092Z,252.00
2018-01-07T12:14:01.086Z,248.00
2018-01-07T12:15:01.078Z,232.00
2018-01-07T12:16:01.082Z,224.00
2018-01-07T12:17:01.088Z,232.00
2018-01-07T12:18:01.059Z,216.00
2018-01-07T12:19:01.073Z,224.00
2018-01-07T12:20:01.051Z,232.00
2018-01-07T12:21:01.050Z,236.00
2018-01-07T12:22:01.034Z,256.00
2018-01-07T12:23:01.039Z,264.00
2018-01-07T12:24:01.024Z,256.00
2018-01-07T12:25:01.014Z,248.00
2018-01-07T12:26:01.021Z,252.00
2018-01-07T12:27:01.005Z,240.00
2018-01-07T12:28:00.997Z,260.00
2018-01-07T12:29:01.006Z,272.00
2018-01-07T12:30:00.986Z,280.00
2018-01-07T12:31:00.975Z,280.00
2018-01-07T12:32:00.970Z,276.00
2018-01-07T12:33:00.970Z,272.00
2018-01-07T12:34:00.966Z,272.00
2018-01-07T12:35:00.956Z,260.00
2018-01-07T12:36:00.944Z,256.00
2018-01-07T12:37:00.934Z,260.00
2018-01-07T12:38:00.940Z,252.00
2018-01-07T12:39:00.930Z,256.00
2018-01-07T12:40:00.925Z,264.00
2018-01-07T12:41:00.918Z,272.00
2018-01-07T12:42:00.906Z,292.00
2018-01-07T12:43:00.899Z,304.00
2018-01-07T12:44:00.894Z,308.00
2018-01-07T12:45:00.912Z,300.00
2018-01-07T12:46:00.908Z,296.00
2018-01-07T12:47:00.871Z,280.00
2018-01-07T12:48:00.892Z,276.00
2018-01-07T12:49:00.883Z,272.00
2018-01-07T12:50:00.863Z,280.00
2018-01-07T12:51:00.860Z,268.00
2018-01-07T12:52:00.851Z,280.00
2018-01-07T12:53:00.833Z,284.00
2018-01-07T12:54:00.829Z,292.00
2018-01-07T12:55:00.832Z,284.00
2018-01-07T12:56:00.813Z,264.00
2018-01-07T12:57:00.818Z,256.00